Terminal Aerodrome Forecast
Issued by NWS

Home | Current Version | Previous Version | Text Only | Print | Product List | Glossary Off
Versions: 1 2 3 4 5 6 7 8 9 10 11 12 13 14 15 16 17 18 19

000
FTUS43 KGRB 221100
TAFCWA
TAF
KCWA 221125Z 2212/2312 32010G18KT P6SM BKN035
     FM221600 33014G25KT P6SM SCT035
     FM222300 34008KT P6SM FEW050
     FM230100 00000KT P6SM SKC=

USA.gov is the U.S. government's official web portal to all federal, state and local government web resources and services.